sensor_id;sensor_type;location;lat;lon;timestamp;P1;durP1;ratioP1;P2;durP2;ratioP2
75272;SDS011;63869;52.344;16.928;2023-06-14T00:00:38;7.78;;;6.30;;
75272;SDS011;63869;52.344;16.928;2023-06-14T00:03:06;9.63;;;6.70;;
75272;SDS011;63869;52.344;16.928;2023-06-14T00:05:36;7.63;;;6.07;;
75272;SDS011;63869;52.344;16.928;2023-06-14T00:08:09;7.90;;;6.15;;
75272;SDS011;63869;52.344;16.928;2023-06-14T00:10:35;8.45;;;6.60;;
75272;SDS011;63869;52.344;16.928;2023-06-14T00:13:02;9.50;;;6.35;;
75272;SDS011;63869;52.344;16.928;2023-06-14T00:15:29;6.35;;;4.97;;
75272;SDS011;63869;52.344;16.928;2023-06-14T00:17:57;6.55;;;5.13;;
75272;SDS011;63869;52.344;16.928;2023-06-14T00:20:26;7.38;;;5.40;;
75272;SDS011;63869;52.344;16.928;2023-06-14T00:22:52;7.00;;;4.72;;
75272;SDS011;63869;52.344;16.928;2023-06-14T00:25:20;7.30;;;5.10;;
75272;SDS011;63869;52.344;16.928;2023-06-14T00:27:45;6.10;;;4.80;;
75272;SDS011;63869;52.344;16.928;2023-06-14T00:30:11;7.55;;;5.60;;
75272;SDS011;63869;52.344;16.928;2023-06-14T00:32:37;9.98;;;5.85;;
75272;SDS011;63869;52.344;16.928;2023-06-14T00:35:02;6.40;;;5.10;;
75272;SDS011;63869;52.344;16.928;2023-06-14T00:37:28;8.57;;;4.85;;
75272;SDS011;63869;52.344;16.928;2023-06-14T00:39:54;6.50;;;5.28;;
75272;SDS011;63869;52.344;16.928;2023-06-14T00:42:24;9.65;;;5.80;;
75272;SDS011;63869;52.344;16.928;2023-06-14T00:44:50;9.88;;;6.00;;
75272;SDS011;63869;52.344;16.928;2023-06-14T00:47:16;6.63;;;5.40;;
75272;SDS011;63869;52.344;16.928;2023-06-14T00:49:41;8.18;;;5.90;;
75272;SDS011;63869;52.344;16.928;2023-06-14T00:52:06;7.93;;;5.85;;
75272;SDS011;63869;52.344;16.928;2023-06-14T00:54:32;9.45;;;5.97;;
75272;SDS011;63869;52.344;16.928;2023-06-14T00:56:57;6.18;;;5.40;;
75272;SDS011;63869;52.344;16.928;2023-06-14T00:59:23;9.35;;;5.90;;
75272;SDS011;63869;52.344;16.928;2023-06-14T01:01:48;7.68;;;5.40;;
75272;SDS011;63869;52.344;16.928;2023-06-14T01:04:13;6.90;;;5.43;;
75272;SDS011;63869;52.344;16.928;2023-06-14T01:15:12;6.07;;;4.40;;
75272;SDS011;63869;52.344;16.928;2023-06-14T01:17:44;7.32;;;5.28;;
75272;SDS011;63869;52.344;16.928;2023-06-14T01:20:11;7.60;;;4.97;;
75272;SDS011;63869;52.344;16.928;2023-06-14T01:23:12;6.70;;;4.70;;
75272;SDS011;63869;52.344;16.928;2023-06-14T01:25:31;8.25;;;4.93;;
75272;SDS011;63869;52.344;16.928;2023-06-14T01:27:59;5.93;;;4.50;;
75272;SDS011;63869;52.344;16.928;2023-06-14T01:30:27;7.22;;;4.90;;
75272;SDS011;63869;52.344;16.928;2023-06-14T01:32:54;8.48;;;4.90;;
75272;SDS011;63869;52.344;16.928;2023-06-14T01:35:21;5.65;;;4.40;;
75272;SDS011;63869;52.344;16.928;2023-06-14T01:37:47;6.75;;;4.40;;
75272;SDS011;63869;52.344;16.928;2023-06-14T01:40:13;6.13;;;4.53;;
75272;SDS011;63869;52.344;16.928;2023-06-14T01:42:40;5.57;;;4.25;;
75272;SDS011;63869;52.344;16.928;2023-06-14T01:45:06;5.25;;;4.15;;
75272;SDS011;63869;52.344;16.928;2023-06-14T01:47:33;6.47;;;4.70;;
75272;SDS011;63869;52.344;16.928;2023-06-14T01:49:59;6.82;;;4.50;;
75272;SDS011;63869;52.344;16.928;2023-06-14T01:52:24;6.43;;;4.70;;
75272;SDS011;63869;52.344;16.928;2023-06-14T01:54:50;5.70;;;4.65;;
75272;SDS011;63869;52.344;16.928;2023-06-14T01:57:16;6.78;;;4.70;;
75272;SDS011;63869;52.344;16.928;2023-06-14T01:59:41;5.90;;;4.25;;
75272;SDS011;63869;52.344;16.928;2023-06-14T02:02:07;8.07;;;5.03;;
75272;SDS011;63869;52.344;16.928;2023-06-14T02:04:32;7.60;;;4.75;;
75272;SDS011;63869;52.344;16.928;2023-06-14T02:06:58;6.95;;;4.47;;
75272;SDS011;63869;52.344;16.928;2023-06-14T02:09:23;5.63;;;4.38;;
75272;SDS011;63869;52.344;16.928;2023-06-14T02:11:49;8.30;;;4.47;;
75272;SDS011;63869;52.344;16.928;2023-06-14T02:14:17;6.15;;;4.72;;
75272;SDS011;63869;52.344;16.928;2023-06-14T02:16:43;7.65;;;4.75;;
75272;SDS011;63869;52.344;16.928;2023-06-14T02:19:15;6.05;;;4.63;;
75272;SDS011;63869;52.344;16.928;2023-06-14T02:21:41;6.40;;;4.60;;
75272;SDS011;63869;52.344;16.928;2023-06-14T02:24:06;10.30;;;5.82;;
75272;SDS011;63869;52.344;16.928;2023-06-14T02:26:32;7.40;;;4.80;;
75272;SDS011;63869;52.344;16.928;2023-06-14T02:28:57;7.90;;;5.03;;
75272;SDS011;63869;52.344;16.928;2023-06-14T02:31:23;6.57;;;4.60;;
75272;SDS011;63869;52.344;16.928;2023-06-14T02:33:48;6.97;;;4.90;;
75272;SDS011;63869;52.344;16.928;2023-06-14T02:36:13;6.13;;;4.82;;
75272;SDS011;63869;52.344;16.928;2023-06-14T02:38:39;9.27;;;5.53;;
75272;SDS011;63869;52.344;16.928;2023-06-14T02:41:04;6.47;;;5.30;;
75272;SDS011;63869;52.344;16.928;2023-06-14T02:43:30;7.40;;;5.53;;
75272;SDS011;63869;52.344;16.928;2023-06-14T02:45:56;6.45;;;5.15;;
75272;SDS011;63869;52.344;16.928;2023-06-14T02:48:21;6.50;;;5.10;;
75272;SDS011;63869;52.344;16.928;2023-06-14T02:50:46;6.78;;;5.10;;
75272;SDS011;63869;52.344;16.928;2023-06-14T02:53:12;7.32;;;5.03;;
75272;SDS011;63869;52.344;16.928;2023-06-14T02:55:37;7.07;;;5.20;;
75272;SDS011;63869;52.344;16.928;2023-06-14T02:58:04;8.43;;;4.95;;
75272;SDS011;63869;52.344;16.928;2023-06-14T03:00:30;7.07;;;4.90;;
75272;SDS011;63869;52.344;16.928;2023-06-14T03:02:55;6.13;;;4.35;;
75272;SDS011;63869;52.344;16.928;2023-06-14T03:05:21;6.38;;;4.50;;
75272;SDS011;63869;52.344;16.928;2023-06-14T03:07:47;8.00;;;4.90;;
75272;SDS011;63869;52.344;16.928;2023-06-14T03:10:12;7.20;;;4.75;;
75272;SDS011;63869;52.344;16.928;2023-06-14T03:12:38;7.03;;;5.10;;
75272;SDS011;63869;52.344;16.928;2023-06-14T03:15:04;6.55;;;4.90;;
75272;SDS011;63869;52.344;16.928;2023-06-14T03:17:30;6.95;;;5.22;;
75272;SDS011;63869;52.344;16.928;2023-06-14T03:19:58;6.68;;;4.80;;
75272;SDS011;63869;52.344;16.928;2023-06-14T03:22:24;8.02;;;4.90;;
75272;SDS011;63869;52.344;16.928;2023-06-14T03:24:50;8.95;;;5.22;;
75272;SDS011;63869;52.344;16.928;2023-06-14T03:27:17;5.75;;;4.70;;
75272;SDS011;63869;52.344;16.928;2023-06-14T03:29:42;5.97;;;4.90;;
75272;SDS011;63869;52.344;16.928;2023-06-14T03:32:08;5.22;;;4.55;;
75272;SDS011;63869;52.344;16.928;2023-06-14T03:34:33;6.07;;;4.57;;
75272;SDS011;63869;52.344;16.928;2023-06-14T03:36:59;6.97;;;4.95;;
75272;SDS011;63869;52.344;16.928;2023-06-14T03:39:24;7.28;;;5.03;;
75272;SDS011;63869;52.344;16.928;2023-06-14T03:41:49;5.75;;;4.47;;
75272;SDS011;63869;52.344;16.928;2023-06-14T03:44:15;7.35;;;5.28;;
75272;SDS011;63869;52.344;16.928;2023-06-14T03:46:42;6.82;;;5.05;;
75272;SDS011;63869;52.344;16.928;2023-06-14T03:49:08;6.88;;;5.07;;
75272;SDS011;63869;52.344;16.928;2023-06-14T03:51:33;7.40;;;5.30;;
75272;SDS011;63869;52.344;16.928;2023-06-14T03:54:00;14.73;;;5.43;;
75272;SDS011;63869;52.344;16.928;2023-06-14T03:56:26;12.65;;;5.28;;
75272;SDS011;63869;52.344;16.928;2023-06-14T03:58:51;14.05;;;5.70;;
75272;SDS011;63869;52.344;16.928;2023-06-14T04:01:17;10.65;;;5.70;;
75272;SDS011;63869;52.344;16.928;2023-06-14T04:03:42;10.50;;;5.57;;
75272;SDS011;63869;52.344;16.928;2023-06-14T04:06:09;11.38;;;5.38;;
75272;SDS011;63869;52.344;16.928;2023-06-14T04:08:35;8.57;;;5.35;;
75272;SDS011;63869;52.344;16.928;2023-06-14T04:11:00;8.85;;;5.20;;
75272;SDS011;63869;52.344;16.928;2023-06-14T04:13:26;11.02;;;5.40;;
75272;SDS011;63869;52.344;16.928;2023-06-14T04:15:52;6.95;;;5.03;;
75272;SDS011;63869;52.344;16.928;2023-06-14T04:18:17;8.52;;;5.40;;
75272;SDS011;63869;52.344;16.928;2023-06-14T04:20:44;9.40;;;5.10;;
75272;SDS011;63869;52.344;16.928;2023-06-14T04:23:11;7.63;;;5.10;;
75272;SDS011;63869;52.344;16.928;2023-06-14T04:25:40;6.85;;;5.10;;
75272;SDS011;63869;52.344;16.928;2023-06-14T04:28:07;7.22;;;5.32;;
75272;SDS011;63869;52.344;16.928;2023-06-14T04:30:34;7.65;;;5.03;;
75272;SDS011;63869;52.344;16.928;2023-06-14T04:33:00;8.65;;;5.18;;
75272;SDS011;63869;52.344;16.928;2023-06-14T04:35:25;10.13;;;5.65;;
75272;SDS011;63869;52.344;16.928;2023-06-14T04:37:52;11.23;;;5.90;;
75272;SDS011;63869;52.344;16.928;2023-06-14T04:40:18;7.10;;;5.10;;
75272;SDS011;63869;52.344;16.928;2023-06-14T04:42:44;8.65;;;5.68;;
75272;SDS011;63869;52.344;16.928;2023-06-14T04:45:10;9.02;;;5.47;;
75272;SDS011;63869;52.344;16.928;2023-06-14T04:47:35;8.52;;;5.63;;
75272;SDS011;63869;52.344;16.928;2023-06-14T04:50:02;8.05;;;5.70;;
75272;SDS011;63869;52.344;16.928;2023-06-14T04:52:28;7.80;;;5.32;;
75272;SDS011;63869;52.344;16.928;2023-06-14T04:54:55;7.55;;;4.85;;
75272;SDS011;63869;52.344;16.928;2023-06-14T04:57:21;6.95;;;5.10;;
75272;SDS011;63869;52.344;16.928;2023-06-14T04:59:47;9.20;;;4.90;;
75272;SDS011;63869;52.344;16.928;2023-06-14T05:02:13;6.57;;;4.88;;
75272;SDS011;63869;52.344;16.928;2023-06-14T05:04:39;6.60;;;5.25;;
75272;SDS011;63869;52.344;16.928;2023-06-14T05:07:06;7.97;;;5.20;;
75272;SDS011;63869;52.344;16.928;2023-06-14T05:09:33;8.82;;;5.63;;
75272;SDS011;63869;52.344;16.928;2023-06-14T05:11:58;6.60;;;4.80;;
75272;SDS011;63869;52.344;16.928;2023-06-14T05:14:25;8.27;;;4.85;;
75272;SDS011;63869;52.344;16.928;2023-06-14T05:16:51;8.20;;;4.93;;
75272;SDS011;63869;52.344;16.928;2023-06-14T05:19:16;9.70;;;5.30;;
75272;SDS011;63869;52.344;16.928;2023-06-14T05:21:43;7.38;;;5.25;;
75272;SDS011;63869;52.344;16.928;2023-06-14T05:24:08;7.35;;;4.60;;
75272;SDS011;63869;52.344;16.928;2023-06-14T05:26:34;7.22;;;4.30;;
75272;SDS011;63869;52.344;16.928;2023-06-14T05:29:00;8.20;;;4.47;;
75272;SDS011;63869;52.344;16.928;2023-06-14T05:31:26;7.93;;;4.28;;
75272;SDS011;63869;52.344;16.928;2023-06-14T05:33:52;9.90;;;4.30;;
75272;SDS011;63869;52.344;16.928;2023-06-14T05:36:19;5.95;;;4.28;;
75272;SDS011;63869;52.344;16.928;2023-06-14T05:38:46;6.43;;;4.32;;
75272;SDS011;63869;52.344;16.928;2023-06-14T05:41:11;8.25;;;4.03;;
75272;SDS011;63869;52.344;16.928;2023-06-14T05:43:37;6.15;;;3.70;;
75272;SDS011;63869;52.344;16.928;2023-06-14T05:46:03;6.82;;;4.22;;
75272;SDS011;63869;52.344;16.928;2023-06-14T05:48:28;6.32;;;4.90;;
75272;SDS011;63869;52.344;16.928;2023-06-14T05:50:55;8.65;;;3.92;;
75272;SDS011;63869;52.344;16.928;2023-06-14T05:53:21;7.05;;;3.70;;
75272;SDS011;63869;52.344;16.928;2023-06-14T05:55:46;6.45;;;3.97;;
75272;SDS011;63869;52.344;16.928;2023-06-14T05:58:11;6.82;;;4.15;;
75272;SDS011;63869;52.344;16.928;2023-06-14T06:00:38;6.88;;;3.95;;
75272;SDS011;63869;52.344;16.928;2023-06-14T06:03:04;4.88;;;3.70;;
75272;SDS011;63869;52.344;16.928;2023-06-14T06:05:31;6.20;;;3.72;;
75272;SDS011;63869;52.344;16.928;2023-06-14T06:07:56;6.07;;;4.15;;
75272;SDS011;63869;52.344;16.928;2023-06-14T06:10:21;5.57;;;3.83;;
75272;SDS011;63869;52.344;16.928;2023-06-14T06:12:46;5.60;;;3.92;;
75272;SDS011;63869;52.344;16.928;2023-06-14T06:15:17;6.68;;;4.25;;
75272;SDS011;63869;52.344;16.928;2023-06-14T06:17:43;5.22;;;3.90;;
75272;SDS011;63869;52.344;16.928;2023-06-14T06:20:08;5.72;;;4.30;;
75272;SDS011;63869;52.344;16.928;2023-06-14T06:22:34;7.10;;;4.40;;
75272;SDS011;63869;52.344;16.928;2023-06-14T06:25:00;6.10;;;4.35;;
75272;SDS011;63869;52.344;16.928;2023-06-14T06:27:25;6.72;;;4.25;;
75272;SDS011;63869;52.344;16.928;2023-06-14T06:29:51;6.70;;;4.40;;
75272;SDS011;63869;52.344;16.928;2023-06-14T06:32:17;5.93;;;4.18;;
75272;SDS011;63869;52.344;16.928;2023-06-14T06:34:42;5.20;;;4.30;;
75272;SDS011;63869;52.344;16.928;2023-06-14T06:37:08;6.72;;;4.15;;
75272;SDS011;63869;52.344;16.928;2023-06-14T06:39:34;7.10;;;4.55;;
75272;SDS011;63869;52.344;16.928;2023-06-14T06:41:59;5.70;;;4.30;;
75272;SDS011;63869;52.344;16.928;2023-06-14T06:44:25;8.65;;;4.70;;
75272;SDS011;63869;52.344;16.928;2023-06-14T06:46:50;6.68;;;4.57;;
75272;SDS011;63869;52.344;16.928;2023-06-14T06:49:15;7.68;;;4.63;;
75272;SDS011;63869;52.344;16.928;2023-06-14T06:51:41;6.93;;;4.25;;
75272;SDS011;63869;52.344;16.928;2023-06-14T06:54:07;6.75;;;4.88;;
75272;SDS011;63869;52.344;16.928;2023-06-14T06:56:33;6.53;;;4.80;;
75272;SDS011;63869;52.344;16.928;2023-06-14T06:58:59;10.63;;;5.13;;
75272;SDS011;63869;52.344;16.928;2023-06-14T07:01:25;6.43;;;4.88;;
75272;SDS011;63869;52.344;16.928;2023-06-14T07:03:51;6.85;;;4.85;;
75272;SDS011;63869;52.344;16.928;2023-06-14T07:06:17;5.97;;;4.60;;
75272;SDS011;63869;52.344;16.928;2023-06-14T07:08:44;6.75;;;4.60;;
75272;SDS011;63869;52.344;16.928;2023-06-14T07:11:09;8.07;;;4.72;;
75272;SDS011;63869;52.344;16.928;2023-06-14T07:13:35;6.72;;;4.75;;
75272;SDS011;63869;52.344;16.928;2023-06-14T07:16:00;7.80;;;4.85;;
75272;SDS011;63869;52.344;16.928;2023-06-14T07:18:26;7.82;;;5.03;;
75272;SDS011;63869;52.344;16.928;2023-06-14T07:20:52;7.88;;;5.07;;
75272;SDS011;63869;52.344;16.928;2023-06-14T07:23:18;5.63;;;4.32;;
75272;SDS011;63869;52.344;16.928;2023-06-14T07:25:44;7.60;;;4.63;;
75272;SDS011;63869;52.344;16.928;2023-06-14T07:28:09;7.07;;;4.07;;
75272;SDS011;63869;52.344;16.928;2023-06-14T07:30:36;5.88;;;4.30;;
75272;SDS011;63869;52.344;16.928;2023-06-14T07:33:01;7.07;;;4.20;;
75272;SDS011;63869;52.344;16.928;2023-06-14T07:35:27;6.55;;;4.40;;
75272;SDS011;63869;52.344;16.928;2023-06-14T07:37:52;13.68;;;4.57;;
75272;SDS011;63869;52.344;16.928;2023-06-14T07:40:18;7.47;;;4.53;;
75272;SDS011;63869;52.344;16.928;2023-06-14T07:42:44;9.18;;;5.55;;
75272;SDS011;63869;52.344;16.928;2023-06-14T07:45:09;8.30;;;4.88;;
75272;SDS011;63869;52.344;16.928;2023-06-14T07:47:36;6.75;;;4.00;;
75272;SDS011;63869;52.344;16.928;2023-06-14T07:50:02;5.88;;;4.00;;
75272;SDS011;63869;52.344;16.928;2023-06-14T07:52:28;5.93;;;3.80;;
75272;SDS011;63869;52.344;16.928;2023-06-14T07:54:53;9.50;;;3.85;;
75272;SDS011;63869;52.344;16.928;2023-06-14T07:57:18;4.43;;;3.72;;
75272;SDS011;63869;52.344;16.928;2023-06-14T07:59:45;8.60;;;4.03;;
75272;SDS011;63869;52.344;16.928;2023-06-14T08:02:11;7.40;;;4.28;;
75272;SDS011;63869;52.344;16.928;2023-06-14T08:04:36;5.25;;;3.65;;
75272;SDS011;63869;52.344;16.928;2023-06-14T08:07:02;6.25;;;4.05;;
75272;SDS011;63869;52.344;16.928;2023-06-14T08:09:27;7.00;;;4.10;;
75272;SDS011;63869;52.344;16.928;2023-06-14T08:11:54;7.82;;;4.70;;
75272;SDS011;63869;52.344;16.928;2023-06-14T08:14:20;7.55;;;4.60;;
75272;SDS011;63869;52.344;16.928;2023-06-14T08:16:46;7.50;;;4.45;;
75272;SDS011;63869;52.344;16.928;2023-06-14T08:19:11;5.50;;;4.40;;
75272;SDS011;63869;52.344;16.928;2023-06-14T08:21:37;6.20;;;4.15;;
75272;SDS011;63869;52.344;16.928;2023-06-14T08:24:02;6.28;;;4.40;;
75272;SDS011;63869;52.344;16.928;2023-06-14T08:26:28;7.93;;;4.90;;
75272;SDS011;63869;52.344;16.928;2023-06-14T08:28:54;9.50;;;5.25;;
75272;SDS011;63869;52.344;16.928;2023-06-14T08:31:22;11.00;;;5.63;;
75272;SDS011;63869;52.344;16.928;2023-06-14T08:33:47;14.38;;;6.65;;
75272;SDS011;63869;52.344;16.928;2023-06-14T08:36:13;7.18;;;4.97;;
75272;SDS011;63869;52.344;16.928;2023-06-14T08:38:39;10.00;;;5.07;;
75272;SDS011;63869;52.344;16.928;2023-06-14T08:41:04;7.07;;;4.50;;
75272;SDS011;63869;52.344;16.928;2023-06-14T08:43:31;7.43;;;4.35;;
75272;SDS011;63869;52.344;16.928;2023-06-14T08:46:02;6.38;;;4.22;;
75272;SDS011;63869;52.344;16.928;2023-06-14T08:48:29;8.00;;;3.55;;
75272;SDS011;63869;52.344;16.928;2023-06-14T08:51:01;5.00;;;3.25;;
75272;SDS011;63869;52.344;16.928;2023-06-14T08:53:32;4.82;;;2.90;;
75272;SDS011;63869;52.344;16.928;2023-06-14T08:55:59;10.02;;;3.90;;
75272;SDS011;63869;52.344;16.928;2023-06-14T08:58:27;6.15;;;3.78;;
75272;SDS011;63869;52.344;16.928;2023-06-14T09:00:54;7.03;;;4.10;;
75272;SDS011;63869;52.344;16.928;2023-06-14T09:03:21;12.88;;;4.22;;
75272;SDS011;63869;52.344;16.928;2023-06-14T09:05:47;5.15;;;3.00;;
75272;SDS011;63869;52.344;16.928;2023-06-14T09:08:12;5.82;;;3.10;;
75272;SDS011;63869;52.344;16.928;2023-06-14T09:10:38;4.35;;;2.97;;
75272;SDS011;63869;52.344;16.928;2023-06-14T09:13:05;6.60;;;3.00;;
75272;SDS011;63869;52.344;16.928;2023-06-14T09:15:31;6.75;;;3.38;;
75272;SDS011;63869;52.344;16.928;2023-06-14T09:17:57;7.65;;;3.00;;
75272;SDS011;63869;52.344;16.928;2023-06-14T09:20:23;4.32;;;3.22;;
75272;SDS011;63869;52.344;16.928;2023-06-14T09:22:49;5.60;;;3.70;;
75272;SDS011;63869;52.344;16.928;2023-06-14T09:25:14;7.93;;;4.07;;
75272;SDS011;63869;52.344;16.928;2023-06-14T09:27:40;4.93;;;3.55;;
75272;SDS011;63869;52.344;16.928;2023-06-14T09:30:08;5.85;;;4.00;;
75272;SDS011;63869;52.344;16.928;2023-06-14T09:32:36;10.20;;;4.40;;
75272;SDS011;63869;52.344;16.928;2023-06-14T09:35:04;7.55;;;3.70;;
75272;SDS011;63869;52.344;16.928;2023-06-14T09:37:31;10.15;;;4.05;;
75272;SDS011;63869;52.344;16.928;2023-06-14T09:39:58;8.48;;;3.90;;
75272;SDS011;63869;52.344;16.928;2023-06-14T09:42:24;7.90;;;3.47;;
75272;SDS011;63869;52.344;16.928;2023-06-14T09:44:54;7.22;;;3.65;;
75272;SDS011;63869;52.344;16.928;2023-06-14T09:47:21;7.90;;;4.03;;
75272;SDS011;63869;52.344;16.928;2023-06-14T09:49:47;5.55;;;3.97;;
75272;SDS011;63869;52.344;16.928;2023-06-14T09:52:17;9.80;;;4.25;;
75272;SDS011;63869;52.344;16.928;2023-06-14T09:54:45;8.32;;;3.55;;
75272;SDS011;63869;52.344;16.928;2023-06-14T10:17:27;6.65;;;3.70;;
75272;SDS011;63869;52.344;16.928;2023-06-14T10:22:49;5.43;;;3.90;;
75272;SDS011;63869;52.344;16.928;2023-06-14T10:25:28;4.80;;;3.65;;
75272;SDS011;63869;52.344;16.928;2023-06-14T10:28:05;5.90;;;3.40;;
75272;SDS011;63869;52.344;16.928;2023-06-14T10:30:41;5.18;;;3.70;;
75272;SDS011;63869;52.344;16.928;2023-06-14T10:33:28;5.47;;;3.53;;
75272;SDS011;63869;52.344;16.928;2023-06-14T10:38:57;9.57;;;3.80;;
75272;SDS011;63869;52.344;16.928;2023-06-14T10:41:22;7.28;;;3.80;;
75272;SDS011;63869;52.344;16.928;2023-06-14T10:43:48;11.10;;;4.03;;
75272;SDS011;63869;52.344;16.928;2023-06-14T10:48:42;5.53;;;4.00;;
75272;SDS011;63869;52.344;16.928;2023-06-14T10:51:42;7.82;;;3.47;;
75272;SDS011;63869;52.344;16.928;2023-06-14T10:54:17;4.97;;;3.70;;
75272;SDS011;63869;52.344;16.928;2023-06-14T10:56:46;5.15;;;3.60;;
75272;SDS011;63869;52.344;16.928;2023-06-14T10:59:12;7.07;;;3.78;;
75272;SDS011;63869;52.344;16.928;2023-06-14T11:04:40;8.93;;;4.78;;
75272;SDS011;63869;52.344;16.928;2023-06-14T11:12:31;8.32;;;4.07;;
75272;SDS011;63869;52.344;16.928;2023-06-14T11:14:58;7.53;;;4.20;;
75272;SDS011;63869;52.344;16.928;2023-06-14T11:17:23;5.97;;;3.88;;
75272;SDS011;63869;52.344;16.928;2023-06-14T11:19:49;6.68;;;4.18;;
75272;SDS011;63869;52.344;16.928;2023-06-14T11:22:15;6.75;;;3.55;;
75272;SDS011;63869;52.344;16.928;2023-06-14T11:24:40;7.07;;;3.75;;
75272;SDS011;63869;52.344;16.928;2023-06-14T11:27:06;7.82;;;4.03;;
75272;SDS011;63869;52.344;16.928;2023-06-14T11:29:31;7.20;;;3.50;;
75272;SDS011;63869;52.344;16.928;2023-06-14T11:31:56;8.07;;;3.75;;
75272;SDS011;63869;52.344;16.928;2023-06-14T11:34:22;6.22;;;3.60;;
75272;SDS011;63869;52.344;16.928;2023-06-14T11:36:47;7.15;;;3.80;;
75272;SDS011;63869;52.344;16.928;2023-06-14T11:39:13;7.60;;;3.88;;
75272;SDS011;63869;52.344;16.928;2023-06-14T11:41:40;9.00;;;3.33;;
75272;SDS011;63869;52.344;16.928;2023-06-14T11:44:06;5.47;;;3.58;;
75272;SDS011;63869;52.344;16.928;2023-06-14T11:46:32;6.55;;;3.33;;
75272;SDS011;63869;52.344;16.928;2023-06-14T11:48:58;12.18;;;3.58;;
75272;SDS011;63869;52.344;16.928;2023-06-14T11:51:23;5.25;;;3.25;;
75272;SDS011;63869;52.344;16.928;2023-06-14T11:53:49;6.57;;;3.50;;
75272;SDS011;63869;52.344;16.928;2023-06-14T11:56:15;6.15;;;3.67;;
75272;SDS011;63869;52.344;16.928;2023-06-14T11:58:42;4.55;;;3.50;;
75272;SDS011;63869;52.344;16.928;2023-06-14T12:01:08;10.07;;;3.70;;
75272;SDS011;63869;52.344;16.928;2023-06-14T12:03:33;4.22;;;3.65;;
75272;SDS011;63869;52.344;16.928;2023-06-14T12:06:04;9.75;;;3.67;;
75272;SDS011;63869;52.344;16.928;2023-06-14T12:08:33;14.45;;;3.92;;
75272;SDS011;63869;52.344;16.928;2023-06-14T12:11:03;9.90;;;3.85;;
75272;SDS011;63869;52.344;16.928;2023-06-14T12:13:29;6.55;;;4.10;;
75272;SDS011;63869;52.344;16.928;2023-06-14T12:15:58;7.57;;;3.60;;
75272;SDS011;63869;52.344;16.928;2023-06-14T12:18:32;6.93;;;3.90;;
75272;SDS011;63869;52.344;16.928;2023-06-14T12:21:00;6.55;;;3.60;;
75272;SDS011;63869;52.344;16.928;2023-06-14T12:23:27;6.57;;;3.80;;
75272;SDS011;63869;52.344;16.928;2023-06-14T12:26:11;6.35;;;3.90;;
75272;SDS011;63869;52.344;16.928;2023-06-14T12:28:39;4.50;;;3.25;;
75272;SDS011;63869;52.344;16.928;2023-06-14T12:31:05;5.95;;;3.60;;
75272;SDS011;63869;52.344;16.928;2023-06-14T12:33:36;7.15;;;3.95;;
75272;SDS011;63869;52.344;16.928;2023-06-14T12:36:04;6.72;;;3.72;;
75272;SDS011;63869;52.344;16.928;2023-06-14T12:38:32;6.35;;;4.13;;
75272;SDS011;63869;52.344;16.928;2023-06-14T12:40:58;4.80;;;3.50;;
75272;SDS011;63869;52.344;16.928;2023-06-14T12:43:23;7.35;;;3.65;;
75272;SDS011;63869;52.344;16.928;2023-06-14T12:45:49;5.75;;;3.60;;
75272;SDS011;63869;52.344;16.928;2023-06-14T12:48:14;8.95;;;3.58;;
75272;SDS011;63869;52.344;16.928;2023-06-14T12:50:40;4.47;;;3.40;;
75272;SDS011;63869;52.344;16.928;2023-06-14T12:53:06;6.82;;;3.40;;
75272;SDS011;63869;52.344;16.928;2023-06-14T12:55:32;4.85;;;3.28;;
75272;SDS011;63869;52.344;16.928;2023-06-14T12:57:57;6.68;;;3.22;;
75272;SDS011;63869;52.344;16.928;2023-06-14T13:00:22;7.43;;;3.20;;
75272;SDS011;63869;52.344;16.928;2023-06-14T13:02:48;5.72;;;2.95;;
75272;SDS011;63869;52.344;16.928;2023-06-14T13:05:13;4.50;;;3.00;;
75272;SDS011;63869;52.344;16.928;2023-06-14T13:07:39;6.10;;;3.10;;
75272;SDS011;63869;52.344;16.928;2023-06-14T13:10:04;4.18;;;3.20;;
75272;SDS011;63869;52.344;16.928;2023-06-14T13:12:30;5.57;;;3.40;;
75272;SDS011;63869;52.344;16.928;2023-06-14T13:14:55;6.70;;;3.17;;
75272;SDS011;63869;52.344;16.928;2023-06-14T13:17:20;5.45;;;3.50;;
75272;SDS011;63869;52.344;16.928;2023-06-14T13:19:46;10.88;;;3.40;;
75272;SDS011;63869;52.344;16.928;2023-06-14T13:22:11;5.37;;;3.10;;
75272;SDS011;63869;52.344;16.928;2023-06-14T13:24:36;6.38;;;3.10;;
75272;SDS011;63869;52.344;16.928;2023-06-14T13:27:02;5.18;;;3.00;;
75272;SDS011;63869;52.344;16.928;2023-06-14T13:29:27;7.97;;;3.20;;
75272;SDS011;63869;52.344;16.928;2023-06-14T13:31:53;5.55;;;2.88;;
75272;SDS011;63869;52.344;16.928;2023-06-14T13:34:19;6.25;;;3.13;;
75272;SDS011;63869;52.344;16.928;2023-06-14T13:36:45;5.03;;;2.95;;
75272;SDS011;63869;52.344;16.928;2023-06-14T13:39:10;13.13;;;3.22;;
75272;SDS011;63869;52.344;16.928;2023-06-14T13:41:38;6.25;;;3.03;;
75272;SDS011;63869;52.344;16.928;2023-06-14T13:44:04;5.57;;;2.90;;
75272;SDS011;63869;52.344;16.928;2023-06-14T13:46:29;6.75;;;3.10;;
75272;SDS011;63869;52.344;16.928;2023-06-14T13:48:55;5.68;;;2.85;;
75272;SDS011;63869;52.344;16.928;2023-06-14T13:51:22;6.35;;;2.85;;
75272;SDS011;63869;52.344;16.928;2023-06-14T13:53:48;4.65;;;3.22;;
75272;SDS011;63869;52.344;16.928;2023-06-14T13:56:14;6.15;;;3.35;;
75272;SDS011;63869;52.344;16.928;2023-06-14T13:58:39;6.75;;;3.05;;
75272;SDS011;63869;52.344;16.928;2023-06-14T14:01:05;6.30;;;2.85;;
75272;SDS011;63869;52.344;16.928;2023-06-14T14:03:30;4.40;;;3.03;;
75272;SDS011;63869;52.344;16.928;2023-06-14T14:05:55;7.97;;;2.90;;
75272;SDS011;63869;52.344;16.928;2023-06-14T14:08:21;5.13;;;2.85;;
75272;SDS011;63869;52.344;16.928;2023-06-14T14:10:46;4.32;;;2.80;;
75272;SDS011;63869;52.344;16.928;2023-06-14T14:13:12;3.58;;;2.90;;
75272;SDS011;63869;52.344;16.928;2023-06-14T14:15:37;6.38;;;2.88;;
75272;SDS011;63869;52.344;16.928;2023-06-14T14:18:03;4.80;;;2.90;;
75272;SDS011;63869;52.344;16.928;2023-06-14T14:20:29;6.63;;;2.90;;
75272;SDS011;63869;52.344;16.928;2023-06-14T14:22:55;7.15;;;3.05;;
75272;SDS011;63869;52.344;16.928;2023-06-14T14:25:21;6.78;;;2.85;;
75272;SDS011;63869;52.344;16.928;2023-06-14T14:27:46;5.32;;;3.17;;
75272;SDS011;63869;52.344;16.928;2023-06-14T14:30:12;3.90;;;2.80;;
75272;SDS011;63869;52.344;16.928;2023-06-14T14:32:39;4.90;;;2.92;;
75272;SDS011;63869;52.344;16.928;2023-06-14T14:35:05;4.15;;;2.80;;
75272;SDS011;63869;52.344;16.928;2023-06-14T14:37:31;7.32;;;2.65;;
75272;SDS011;63869;52.344;16.928;2023-06-14T14:39:56;4.30;;;3.03;;
75272;SDS011;63869;52.344;16.928;2023-06-14T14:42:21;7.43;;;2.70;;
75272;SDS011;63869;52.344;16.928;2023-06-14T14:44:46;3.42;;;2.35;;
75272;SDS011;63869;52.344;16.928;2023-06-14T14:47:12;5.20;;;2.70;;
75272;SDS011;63869;52.344;16.928;2023-06-14T14:49:38;5.53;;;2.42;;
75272;SDS011;63869;52.344;16.928;2023-06-14T14:52:03;5.88;;;2.50;;
75272;SDS011;63869;52.344;16.928;2023-06-14T14:54:28;5.00;;;2.58;;
75272;SDS011;63869;52.344;16.928;2023-06-14T14:56:54;3.83;;;2.30;;
75272;SDS011;63869;52.344;16.928;2023-06-14T14:59:20;8.25;;;2.42;;
75272;SDS011;63869;52.344;16.928;2023-06-14T15:01:46;5.50;;;2.60;;
75272;SDS011;63869;52.344;16.928;2023-06-14T15:04:12;5.28;;;2.70;;
75272;SDS011;63869;52.344;16.928;2023-06-14T15:06:38;7.13;;;3.03;;
75272;SDS011;63869;52.344;16.928;2023-06-14T15:09:06;10.48;;;2.80;;
75272;SDS011;63869;52.344;16.928;2023-06-14T15:11:31;8.35;;;3.10;;
75272;SDS011;63869;52.344;16.928;2023-06-14T15:13:57;5.47;;;3.43;;